sensor_id;sensor_type;location;lat;lon;timestamp;P1;durP1;ratioP1;P2;durP2;ratioP2
77449;SDS011;66536;53.150;18.172;2024-03-23T00:56:04;14.40;;;2.70;;
77449;SDS011;66536;53.150;18.172;2024-03-23T00:58:30;22.50;;;3.40;;
77449;SDS011;66536;53.150;18.172;2024-03-23T01:00:56;12.10;;;2.60;;
77449;SDS011;66536;53.150;18.172;2024-03-23T01:03:22;17.30;;;3.20;;
77449;SDS011;66536;53.150;18.172;2024-03-23T01:05:48;16.90;;;2.80;;
77449;SDS011;66536;53.150;18.172;2024-03-23T01:08:14;18.00;;;3.20;;
77449;SDS011;66536;53.150;18.172;2024-03-23T01:10:40;18.20;;;2.90;;
77449;SDS011;66536;53.150;18.172;2024-03-23T01:13:06;22.50;;;3.70;;
77449;SDS011;66536;53.150;18.172;2024-03-23T01:15:32;14.80;;;3.40;;
77449;SDS011;66536;53.150;18.172;2024-03-23T01:18:01;16.10;;;3.20;;
77449;SDS011;66536;53.150;18.172;2024-03-23T01:20:27;18.20;;;4.70;;
77449;SDS011;66536;53.150;18.172;2024-03-23T01:22:53;23.10;;;5.10;;
77449;SDS011;66536;53.150;18.172;2024-03-23T01:25:19;20.40;;;3.90;;
77449;SDS011;66536;53.150;18.172;2024-03-23T01:27:48;14.20;;;3.80;;
77449;SDS011;66536;53.150;18.172;2024-03-23T01:30:14;16.40;;;3.80;;
77449;SDS011;66536;53.150;18.172;2024-03-23T01:32:41;17.30;;;3.30;;
77449;SDS011;66536;53.150;18.172;2024-03-23T01:35:10;17.80;;;3.70;;
77449;SDS011;66536;53.150;18.172;2024-03-23T01:37:37;18.10;;;2.90;;
77449;SDS011;66536;53.150;18.172;2024-03-23T01:40:03;12.40;;;2.20;;
77449;SDS011;66536;53.150;18.172;2024-03-23T01:42:30;16.10;;;3.20;;
77449;SDS011;66536;53.150;18.172;2024-03-23T01:44:56;13.20;;;2.70;;
77449;SDS011;66536;53.150;18.172;2024-03-23T01:47:22;12.50;;;2.90;;
77449;SDS011;66536;53.150;18.172;2024-03-23T01:49:48;14.10;;;2.60;;
77449;SDS011;66536;53.150;18.172;2024-03-23T01:52:14;16.50;;;3.90;;
77449;SDS011;66536;53.150;18.172;2024-03-23T01:54:40;24.00;;;4.20;;
77449;SDS011;66536;53.150;18.172;2024-03-23T01:57:06;14.80;;;3.80;;
77449;SDS011;66536;53.150;18.172;2024-03-23T01:59:33;15.90;;;3.90;;
77449;SDS011;66536;53.150;18.172;2024-03-23T02:02:02;11.30;;;3.40;;
77449;SDS011;66536;53.150;18.172;2024-03-23T02:04:29;13.90;;;3.30;;
77449;SDS011;66536;53.150;18.172;2024-03-23T02:06:55;17.60;;;3.10;;
77449;SDS011;66536;53.150;18.172;2024-03-23T02:09:21;16.60;;;3.10;;
77449;SDS011;66536;53.150;18.172;2024-03-23T02:11:47;8.30;;;2.50;;
77449;SDS011;66536;53.150;18.172;2024-03-23T02:14:13;12.90;;;3.50;;
77449;SDS011;66536;53.150;18.172;2024-03-23T02:16:39;21.80;;;4.20;;
77449;SDS011;66536;53.150;18.172;2024-03-23T02:19:05;25.70;;;4.80;;
77449;SDS011;66536;53.150;18.172;2024-03-23T02:21:31;21.40;;;5.00;;
77449;SDS011;66536;53.150;18.172;2024-03-23T02:23:59;15.60;;;3.70;;
77449;SDS011;66536;53.150;18.172;2024-03-23T02:26:25;14.30;;;3.60;;
77449;SDS011;66536;53.150;18.172;2024-03-23T02:28:52;20.70;;;3.30;;
77449;SDS011;66536;53.150;18.172;2024-03-23T02:31:18;19.80;;;3.90;;
77449;SDS011;66536;53.150;18.172;2024-03-23T02:33:44;12.50;;;3.40;;
77449;SDS011;66536;53.150;18.172;2024-03-23T02:36:11;19.40;;;4.00;;
77449;SDS011;66536;53.150;18.172;2024-03-23T02:38:37;14.80;;;4.20;;
77449;SDS011;66536;53.150;18.172;2024-03-23T02:41:03;21.10;;;4.00;;
77449;SDS011;66536;53.150;18.172;2024-03-23T02:43:30;19.80;;;4.30;;
77449;SDS011;66536;53.150;18.172;2024-03-23T02:45:56;19.20;;;6.60;;
77449;SDS011;66536;53.150;18.172;2024-03-23T02:48:22;28.30;;;5.30;;
77449;SDS011;66536;53.150;18.172;2024-03-23T02:50:50;12.90;;;3.60;;
77449;SDS011;66536;53.150;18.172;2024-03-23T02:53:16;14.70;;;3.90;;
77449;SDS011;66536;53.150;18.172;2024-03-23T02:55:43;14.50;;;4.20;;
77449;SDS011;66536;53.150;18.172;2024-03-23T02:58:09;17.40;;;4.00;;
77449;SDS011;66536;53.150;18.172;2024-03-23T03:00:35;15.80;;;4.20;;
77449;SDS011;66536;53.150;18.172;2024-03-23T03:03:01;22.80;;;4.00;;
77449;SDS011;66536;53.150;18.172;2024-03-23T03:05:28;11.10;;;3.00;;
77449;SDS011;66536;53.150;18.172;2024-03-23T03:07:58;13.60;;;3.10;;
77449;SDS011;66536;53.150;18.172;2024-03-23T03:10:24;18.40;;;3.40;;
77449;SDS011;66536;53.150;18.172;2024-03-23T03:12:50;14.30;;;3.70;;
77449;SDS011;66536;53.150;18.172;2024-03-23T03:15:16;17.50;;;3.90;;
77449;SDS011;66536;53.150;18.172;2024-03-23T03:17:42;14.40;;;3.70;;
77449;SDS011;66536;53.150;18.172;2024-03-23T03:20:09;17.90;;;5.20;;
77449;SDS011;66536;53.150;18.172;2024-03-23T03:22:39;18.90;;;5.10;;
77449;SDS011;66536;53.150;18.172;2024-03-23T03:25:05;16.50;;;4.70;;
77449;SDS011;66536;53.150;18.172;2024-03-23T03:27:33;13.10;;;4.30;;
77449;SDS011;66536;53.150;18.172;2024-03-23T03:30:00;18.70;;;4.90;;
77449;SDS011;66536;53.150;18.172;2024-03-23T03:32:29;19.10;;;5.10;;
77449;SDS011;66536;53.150;18.172;2024-03-23T03:34:55;13.80;;;4.50;;
77449;SDS011;66536;53.150;18.172;2024-03-23T03:37:21;22.40;;;5.60;;
77449;SDS011;66536;53.150;18.172;2024-03-23T03:39:47;26.20;;;7.30;;
77449;SDS011;66536;53.150;18.172;2024-03-23T03:42:16;27.50;;;9.10;;
77449;SDS011;66536;53.150;18.172;2024-03-23T03:44:42;31.30;;;12.90;;
77449;SDS011;66536;53.150;18.172;2024-03-23T03:47:08;33.80;;;15.10;;
77449;SDS011;66536;53.150;18.172;2024-03-23T03:49:34;39.40;;;16.70;;
77449;SDS011;66536;53.150;18.172;2024-03-23T03:52:01;52.10;;;22.60;;
77449;SDS011;66536;53.150;18.172;2024-03-23T03:54:27;54.40;;;23.30;;
77449;SDS011;66536;53.150;18.172;2024-03-23T03:56:54;40.40;;;17.20;;
77449;SDS011;66536;53.150;18.172;2024-03-23T03:59:23;26.20;;;9.10;;
77449;SDS011;66536;53.150;18.172;2024-03-23T04:01:49;18.10;;;6.50;;
77449;SDS011;66536;53.150;18.172;2024-03-23T04:04:15;24.60;;;6.40;;
77449;SDS011;66536;53.150;18.172;2024-03-23T04:06:43;18.20;;;5.80;;
77449;SDS011;66536;53.150;18.172;2024-03-23T04:09:09;17.80;;;5.50;;
77449;SDS011;66536;53.150;18.172;2024-03-23T04:11:37;18.00;;;5.90;;
77449;SDS011;66536;53.150;18.172;2024-03-23T04:14:03;15.10;;;5.20;;
77449;SDS011;66536;53.150;18.172;2024-03-23T04:16:31;19.50;;;6.90;;
77449;SDS011;66536;53.150;18.172;2024-03-23T04:19:00;38.80;;;11.90;;
77449;SDS011;66536;53.150;18.172;2024-03-23T04:21:26;31.20;;;9.50;;
77449;SDS011;66536;53.150;18.172;2024-03-23T04:23:52;27.30;;;7.50;;
77449;SDS011;66536;53.150;18.172;2024-03-23T04:26:18;18.10;;;6.00;;
77449;SDS011;66536;53.150;18.172;2024-03-23T04:28:44;26.60;;;8.50;;
77449;SDS011;66536;53.150;18.172;2024-03-23T04:31:11;23.90;;;6.80;;
77449;SDS011;66536;53.150;18.172;2024-03-23T04:33:39;21.70;;;7.00;;
77449;SDS011;66536;53.150;18.172;2024-03-23T04:36:05;18.80;;;7.10;;
77449;SDS011;66536;53.150;18.172;2024-03-23T04:38:33;21.30;;;6.30;;
77449;SDS011;66536;53.150;18.172;2024-03-23T04:41:00;18.90;;;5.50;;
77449;SDS011;66536;53.150;18.172;2024-03-23T04:43:27;23.10;;;5.80;;
77449;SDS011;66536;53.150;18.172;2024-03-23T04:45:54;23.90;;;5.90;;
77449;SDS011;66536;53.150;18.172;2024-03-23T04:48:20;20.40;;;6.30;;
77449;SDS011;66536;53.150;18.172;2024-03-23T04:50:48;24.30;;;7.50;;
77449;SDS011;66536;53.150;18.172;2024-03-23T04:53:15;30.40;;;8.20;;
77449;SDS011;66536;53.150;18.172;2024-03-23T04:55:42;23.10;;;8.00;;
77449;SDS011;66536;53.150;18.172;2024-03-23T04:58:08;27.00;;;9.00;;
77449;SDS011;66536;53.150;18.172;2024-03-23T05:00:34;20.00;;;7.70;;
77449;SDS011;66536;53.150;18.172;2024-03-23T05:03:00;23.80;;;7.90;;
77449;SDS011;66536;53.150;18.172;2024-03-23T05:05:27;26.10;;;8.40;;
77449;SDS011;66536;53.150;18.172;2024-03-23T05:07:53;23.50;;;8.30;;
77449;SDS011;66536;53.150;18.172;2024-03-23T05:10:19;23.00;;;8.40;;
77449;SDS011;66536;53.150;18.172;2024-03-23T05:12:45;23.20;;;9.00;;
77449;SDS011;66536;53.150;18.172;2024-03-23T05:15:11;27.60;;;9.30;;
77449;SDS011;66536;53.150;18.172;2024-03-23T05:17:38;20.20;;;8.10;;
77449;SDS011;66536;53.150;18.172;2024-03-23T05:20:04;20.30;;;7.30;;
77449;SDS011;66536;53.150;18.172;2024-03-23T05:22:35;23.90;;;7.70;;
77449;SDS011;66536;53.150;18.172;2024-03-23T05:25:02;22.40;;;7.00;;
77449;SDS011;66536;53.150;18.172;2024-03-23T05:27:32;19.30;;;5.70;;
77449;SDS011;66536;53.150;18.172;2024-03-23T05:29:58;12.20;;;4.80;;
77449;SDS011;66536;53.150;18.172;2024-03-23T05:32:24;20.90;;;5.00;;
77449;SDS011;66536;53.150;18.172;2024-03-23T05:34:50;18.10;;;4.70;;
77449;SDS011;66536;53.150;18.172;2024-03-23T05:37:22;20.90;;;5.40;;
77449;SDS011;66536;53.150;18.172;2024-03-23T05:39:49;15.30;;;5.50;;
77449;SDS011;66536;53.150;18.172;2024-03-23T05:42:16;19.00;;;4.60;;
77449;SDS011;66536;53.150;18.172;2024-03-23T05:44:44;16.00;;;3.90;;
77449;SDS011;66536;53.150;18.172;2024-03-23T05:47:11;14.30;;;3.80;;
77449;SDS011;66536;53.150;18.172;2024-03-23T05:49:40;14.50;;;3.70;;
77449;SDS011;66536;53.150;18.172;2024-03-23T05:52:10;19.00;;;4.20;;
77449;SDS011;66536;53.150;18.172;2024-03-23T05:54:36;12.80;;;3.30;;
77449;SDS011;66536;53.150;18.172;2024-03-23T05:57:03;12.20;;;3.20;;
77449;SDS011;66536;53.150;18.172;2024-03-23T05:59:29;21.60;;;4.30;;
77449;SDS011;66536;53.150;18.172;2024-03-23T06:01:56;19.70;;;5.90;;
77449;SDS011;66536;53.150;18.172;2024-03-23T06:04:22;18.50;;;6.90;;
77449;SDS011;66536;53.150;18.172;2024-03-23T06:06:48;17.70;;;6.70;;
77449;SDS011;66536;53.150;18.172;2024-03-23T06:09:14;17.50;;;5.70;;
77449;SDS011;66536;53.150;18.172;2024-03-23T06:11:40;15.60;;;5.60;;
77449;SDS011;66536;53.150;18.172;2024-03-23T06:14:06;16.30;;;5.00;;
77449;SDS011;66536;53.150;18.172;2024-03-23T06:16:32;14.70;;;4.50;;
77449;SDS011;66536;53.150;18.172;2024-03-23T06:18:59;16.20;;;4.60;;
77449;SDS011;66536;53.150;18.172;2024-03-23T06:21:25;15.10;;;4.20;;
77449;SDS011;66536;53.150;18.172;2024-03-23T06:23:51;18.30;;;4.30;;
77449;SDS011;66536;53.150;18.172;2024-03-23T06:26:18;17.90;;;4.60;;
77449;SDS011;66536;53.150;18.172;2024-03-23T06:28:45;15.10;;;3.80;;
77449;SDS011;66536;53.150;18.172;2024-03-23T06:31:12;22.80;;;4.20;;
77449;SDS011;66536;53.150;18.172;2024-03-23T06:33:38;13.70;;;3.70;;
77449;SDS011;66536;53.150;18.172;2024-03-23T06:36:07;13.30;;;3.50;;
77449;SDS011;66536;53.150;18.172;2024-03-23T06:38:35;16.70;;;4.60;;
77449;SDS011;66536;53.150;18.172;2024-03-23T06:41:03;15.70;;;3.40;;
77449;SDS011;66536;53.150;18.172;2024-03-23T06:43:31;13.00;;;2.90;;
77449;SDS011;66536;53.150;18.172;2024-03-23T06:45:57;14.60;;;3.70;;
77449;SDS011;66536;53.150;18.172;2024-03-23T06:48:24;19.10;;;3.90;;
77449;SDS011;66536;53.150;18.172;2024-03-23T06:50:54;19.60;;;3.90;;
77449;SDS011;66536;53.150;18.172;2024-03-23T06:53:22;21.90;;;5.00;;
77449;SDS011;66536;53.150;18.172;2024-03-23T06:55:50;21.60;;;5.60;;
77449;SDS011;66536;53.150;18.172;2024-03-23T06:58:19;35.90;;;8.20;;
77449;SDS011;66536;53.150;18.172;2024-03-23T07:00:46;46.60;;;9.20;;
77449;SDS011;66536;53.150;18.172;2024-03-23T07:03:13;38.60;;;10.20;;
77449;SDS011;66536;53.150;18.172;2024-03-23T07:05:39;28.90;;;9.00;;
77449;SDS011;66536;53.150;18.172;2024-03-23T07:08:06;25.20;;;6.70;;
77449;SDS011;66536;53.150;18.172;2024-03-23T07:10:32;22.60;;;5.30;;
77449;SDS011;66536;53.150;18.172;2024-03-23T07:13:01;20.40;;;4.80;;
77449;SDS011;66536;53.150;18.172;2024-03-23T07:15:28;18.90;;;4.50;;
77449;SDS011;66536;53.150;18.172;2024-03-23T07:17:57;20.00;;;5.20;;
77449;SDS011;66536;53.150;18.172;2024-03-23T07:20:42;16.00;;;4.70;;
77449;SDS011;66536;53.150;18.172;2024-03-23T07:23:08;20.20;;;5.40;;
77449;SDS011;66536;53.150;18.172;2024-03-23T07:25:34;19.00;;;5.30;;
77449;SDS011;66536;53.150;18.172;2024-03-23T07:28:00;19.20;;;5.00;;
77449;SDS011;66536;53.150;18.172;2024-03-23T07:30:26;20.70;;;5.50;;
77449;SDS011;66536;53.150;18.172;2024-03-23T07:32:52;24.20;;;6.80;;
77449;SDS011;66536;53.150;18.172;2024-03-23T07:35:18;58.50;;;14.40;;
77449;SDS011;66536;53.150;18.172;2024-03-23T07:37:44;32.90;;;8.80;;
77449;SDS011;66536;53.150;18.172;2024-03-23T07:40:10;22.30;;;4.20;;
77449;SDS011;66536;53.150;18.172;2024-03-23T07:42:37;15.00;;;3.40;;
77449;SDS011;66536;53.150;18.172;2024-03-23T07:45:04;17.10;;;2.90;;
77449;SDS011;66536;53.150;18.172;2024-03-23T07:47:30;23.50;;;5.10;;
77449;SDS011;66536;53.150;18.172;2024-03-23T07:49:56;30.10;;;8.30;;
77449;SDS011;66536;53.150;18.172;2024-03-23T07:52:23;20.10;;;6.00;;
77449;SDS011;66536;53.150;18.172;2024-03-23T07:54:50;17.90;;;5.40;;
77449;SDS011;66536;53.150;18.172;2024-03-23T07:57:16;15.60;;;4.60;;
77449;SDS011;66536;53.150;18.172;2024-03-23T07:59:42;10.70;;;2.50;;
77449;SDS011;66536;53.150;18.172;2024-03-23T08:02:08;18.40;;;6.80;;
77449;SDS011;66536;53.150;18.172;2024-03-23T08:04:34;13.00;;;3.80;;
77449;SDS011;66536;53.150;18.172;2024-03-23T08:07:00;14.70;;;3.20;;
77449;SDS011;66536;53.150;18.172;2024-03-23T08:09:26;10.80;;;3.10;;
77449;SDS011;66536;53.150;18.172;2024-03-23T08:11:52;16.40;;;6.60;;
77449;SDS011;66536;53.150;18.172;2024-03-23T08:14:19;19.20;;;5.60;;
77449;SDS011;66536;53.150;18.172;2024-03-23T08:16:45;22.20;;;9.60;;
77449;SDS011;66536;53.150;18.172;2024-03-23T08:19:14;16.30;;;5.70;;
77449;SDS011;66536;53.150;18.172;2024-03-23T08:21:40;19.20;;;6.50;;
77449;SDS011;66536;53.150;18.172;2024-03-23T08:24:07;10.30;;;2.50;;
77449;SDS011;66536;53.150;18.172;2024-03-23T08:26:33;11.00;;;2.00;;
77449;SDS011;66536;53.150;18.172;2024-03-23T08:28:59;11.70;;;2.20;;
77449;SDS011;66536;53.150;18.172;2024-03-23T08:31:25;14.30;;;2.30;;
77449;SDS011;66536;53.150;18.172;2024-03-23T08:33:51;10.80;;;2.30;;
77449;SDS011;66536;53.150;18.172;2024-03-23T08:36:17;14.00;;;3.10;;
77449;SDS011;66536;53.150;18.172;2024-03-23T08:38:43;16.90;;;2.80;;
77449;SDS011;66536;53.150;18.172;2024-03-23T08:41:10;15.30;;;3.60;;
77449;SDS011;66536;53.150;18.172;2024-03-23T08:43:37;30.90;;;9.10;;
77449;SDS011;66536;53.150;18.172;2024-03-23T08:46:06;29.20;;;12.90;;
77449;SDS011;66536;53.150;18.172;2024-03-23T08:48:35;15.20;;;4.00;;
77449;SDS011;66536;53.150;18.172;2024-03-23T08:51:02;14.10;;;3.50;;
77449;SDS011;66536;53.150;18.172;2024-03-23T08:53:29;11.40;;;3.30;;
77449;SDS011;66536;53.150;18.172;2024-03-23T08:55:57;16.30;;;3.70;;
77449;SDS011;66536;53.150;18.172;2024-03-23T08:58:24;20.40;;;3.60;;
77449;SDS011;66536;53.150;18.172;2024-03-23T09:00:51;14.00;;;2.40;;
77449;SDS011;66536;53.150;18.172;2024-03-23T09:03:17;22.50;;;4.00;;
77449;SDS011;66536;53.150;18.172;2024-03-23T09:05:44;7.10;;;1.90;;
77449;SDS011;66536;53.150;18.172;2024-03-23T09:08:10;11.50;;;2.80;;
77449;SDS011;66536;53.150;18.172;2024-03-23T09:10:40;11.20;;;2.40;;
77449;SDS011;66536;53.150;18.172;2024-03-23T09:13:07;13.40;;;3.10;;
77449;SDS011;66536;53.150;18.172;2024-03-23T09:15:35;15.10;;;4.00;;
77449;SDS011;66536;53.150;18.172;2024-03-23T09:18:03;9.50;;;2.80;;
77449;SDS011;66536;53.150;18.172;2024-03-23T09:20:32;12.20;;;2.30;;
77449;SDS011;66536;53.150;18.172;2024-03-23T09:22:59;9.10;;;2.20;;
77449;SDS011;66536;53.150;18.172;2024-03-23T09:25:25;9.00;;;2.50;;
77449;SDS011;66536;53.150;18.172;2024-03-23T09:27:51;12.20;;;3.60;;
77449;SDS011;66536;53.150;18.172;2024-03-23T09:30:17;13.30;;;3.80;;
77449;SDS011;66536;53.150;18.172;2024-03-23T09:32:44;6.00;;;2.70;;
77449;SDS011;66536;53.150;18.172;2024-03-23T09:35:10;12.60;;;4.00;;
77449;SDS011;66536;53.150;18.172;2024-03-23T09:37:38;6.30;;;2.60;;
77449;SDS011;66536;53.150;18.172;2024-03-23T09:40:09;7.30;;;2.00;;
77449;SDS011;66536;53.150;18.172;2024-03-23T09:42:37;9.80;;;3.90;;
77449;SDS011;66536;53.150;18.172;2024-03-23T09:45:05;4.60;;;1.90;;
77449;SDS011;66536;53.150;18.172;2024-03-23T09:47:33;4.60;;;2.30;;
77449;SDS011;66536;53.150;18.172;2024-03-23T09:50:00;9.60;;;3.30;;
77449;SDS011;66536;53.150;18.172;2024-03-23T09:52:26;9.60;;;4.40;;
77449;SDS011;66536;53.150;18.172;2024-03-23T09:54:53;10.80;;;2.40;;
77449;SDS011;66536;53.150;18.172;2024-03-23T09:57:19;36.10;;;7.10;;
77449;SDS011;66536;53.150;18.172;2024-03-23T09:59:45;9.70;;;3.70;;
77449;SDS011;66536;53.150;18.172;2024-03-23T10:02:11;26.30;;;6.50;;
77449;SDS011;66536;53.150;18.172;2024-03-23T10:04:42;8.00;;;3.10;;
77449;SDS011;66536;53.150;18.172;2024-03-23T10:09:47;4.80;;;1.90;;
77449;SDS011;66536;53.150;18.172;2024-03-23T10:12:17;14.60;;;5.10;;
77449;SDS011;66536;53.150;18.172;2024-03-23T10:14:44;5.00;;;1.70;;
77449;SDS011;66536;53.150;18.172;2024-03-23T10:17:13;3.70;;;1.60;;
77449;SDS011;66536;53.150;18.172;2024-03-23T10:19:45;5.30;;;1.50;;
77449;SDS011;66536;53.150;18.172;2024-03-23T10:22:17;8.20;;;1.60;;
77449;SDS011;66536;53.150;18.172;2024-03-23T10:24:45;4.80;;;1.40;;
77449;SDS011;66536;53.150;18.172;2024-03-23T10:27:14;2.00;;;1.20;;
77449;SDS011;66536;53.150;18.172;2024-03-23T10:29:43;5.00;;;1.20;;
77449;SDS011;66536;53.150;18.172;2024-03-23T10:32:11;3.10;;;1.20;;
77449;SDS011;66536;53.150;18.172;2024-03-23T10:34:37;3.70;;;0.90;;
77449;SDS011;66536;53.150;18.172;2024-03-23T10:37:04;5.30;;;0.90;;
77449;SDS011;66536;53.150;18.172;2024-03-23T10:39:33;4.80;;;1.40;;
77449;SDS011;66536;53.150;18.172;2024-03-23T10:42:02;5.20;;;1.60;;
77449;SDS011;66536;53.150;18.172;2024-03-23T10:44:33;12.40;;;5.10;;
77449;SDS011;66536;53.150;18.172;2024-03-23T10:47:00;18.50;;;7.50;;
77449;SDS011;66536;53.150;18.172;2024-03-23T10:49:29;32.00;;;8.60;;
77449;SDS011;66536;53.150;18.172;2024-03-23T10:51:58;33.80;;;9.10;;
77449;SDS011;66536;53.150;18.172;2024-03-23T10:54:25;8.60;;;2.90;;
77449;SDS011;66536;53.150;18.172;2024-03-23T10:56:57;7.70;;;2.00;;
77449;SDS011;66536;53.150;18.172;2024-03-23T10:59:29;17.60;;;5.60;;
77449;SDS011;66536;53.150;18.172;2024-03-23T11:01:57;9.60;;;4.00;;
77449;SDS011;66536;53.150;18.172;2024-03-23T11:04:32;21.70;;;5.30;;
77449;SDS011;66536;53.150;18.172;2024-03-23T11:09:54;15.60;;;4.20;;
77449;SDS011;66536;53.150;18.172;2024-03-23T11:12:26;22.30;;;7.90;;
77449;SDS011;66536;53.150;18.172;2024-03-23T11:14:54;15.40;;;4.40;;
77449;SDS011;66536;53.150;18.172;2024-03-23T11:17:25;15.20;;;4.60;;
77449;SDS011;66536;53.150;18.172;2024-03-23T11:19:54;12.60;;;4.80;;
77449;SDS011;66536;53.150;18.172;2024-03-23T11:27:46;6.80;;;1.70;;
77449;SDS011;66536;53.150;18.172;2024-03-23T11:30:14;17.00;;;5.40;;
77449;SDS011;66536;53.150;18.172;2024-03-23T11:32:43;12.50;;;4.20;;
77449;SDS011;66536;53.150;18.172;2024-03-23T11:35:10;7.80;;;1.90;;
77449;SDS011;66536;53.150;18.172;2024-03-23T11:40:29;6.70;;;2.20;;
77449;SDS011;66536;53.150;18.172;2024-03-23T11:42:56;7.10;;;2.20;;
77449;SDS011;66536;53.150;18.172;2024-03-23T11:45:22;7.70;;;2.70;;
77449;SDS011;66536;53.150;18.172;2024-03-23T11:47:48;10.10;;;3.20;;
77449;SDS011;66536;53.150;18.172;2024-03-23T11:50:21;10.90;;;3.40;;
77449;SDS011;66536;53.150;18.172;2024-03-23T11:52:47;21.80;;;6.00;;
77449;SDS011;66536;53.150;18.172;2024-03-23T11:55:14;16.70;;;5.20;;
77449;SDS011;66536;53.150;18.172;2024-03-23T11:57:42;14.80;;;5.20;;
77449;SDS011;66536;53.150;18.172;2024-03-23T12:00:20;24.10;;;8.10;;
77449;SDS011;66536;53.150;18.172;2024-03-23T12:02:47;13.50;;;5.00;;
77449;SDS011;66536;53.150;18.172;2024-03-23T12:05:15;13.70;;;4.00;;
77449;SDS011;66536;53.150;18.172;2024-03-23T12:07:41;17.00;;;6.40;;
77449;SDS011;66536;53.150;18.172;2024-03-23T12:10:07;9.10;;;4.20;;
77449;SDS011;66536;53.150;18.172;2024-03-23T12:12:34;9.10;;;4.50;;
77449;SDS011;66536;53.150;18.172;2024-03-23T12:15:01;9.60;;;4.10;;
77449;SDS011;66536;53.150;18.172;2024-03-23T12:17:31;8.80;;;3.40;;
77449;SDS011;66536;53.150;18.172;2024-03-23T12:19:58;9.00;;;3.80;;
77449;SDS011;66536;53.150;18.172;2024-03-23T12:22:24;27.20;;;9.40;;
77449;SDS011;66536;53.150;18.172;2024-03-23T12:24:50;18.60;;;7.00;;
77449;SDS011;66536;53.150;18.172;2024-03-23T12:27:16;12.90;;;6.40;;
77449;SDS011;66536;53.150;18.172;2024-03-23T12:29:43;37.80;;;11.80;;
77449;SDS011;66536;53.150;18.172;2024-03-23T12:32:11;21.00;;;9.90;;
77449;SDS011;66536;53.150;18.172;2024-03-23T12:34:38;14.40;;;6.70;;
77449;SDS011;66536;53.150;18.172;2024-03-23T12:37:04;38.10;;;10.90;;
77449;SDS011;66536;53.150;18.172;2024-03-23T12:39:32;20.70;;;7.20;;
77449;SDS011;66536;53.150;18.172;2024-03-23T12:42:00;17.50;;;6.50;;
77449;SDS011;66536;53.150;18.172;2024-03-23T12:44:28;21.40;;;8.50;;
77449;SDS011;66536;53.150;18.172;2024-03-23T12:46:55;24.30;;;9.60;;
77449;SDS011;66536;53.150;18.172;2024-03-23T12:49:21;25.40;;;11.70;;
77449;SDS011;66536;53.150;18.172;2024-03-23T12:51:52;27.50;;;12.00;;
77449;SDS011;66536;53.150;18.172;2024-03-23T12:54:21;19.00;;;7.90;;
77449;SDS011;66536;53.150;18.172;2024-03-23T12:56:48;13.00;;;6.20;;
77449;SDS011;66536;53.150;18.172;2024-03-23T12:59:14;17.60;;;7.60;;
77449;SDS011;66536;53.150;18.172;2024-03-23T13:01:42;13.80;;;6.30;;
77449;SDS011;66536;53.150;18.172;2024-03-23T13:04:09;16.10;;;7.00;;
77449;SDS011;66536;53.150;18.172;2024-03-23T13:06:36;17.60;;;6.40;;
77449;SDS011;66536;53.150;18.172;2024-03-23T13:09:02;10.60;;;3.90;;
77449;SDS011;66536;53.150;18.172;2024-03-23T13:11:30;11.00;;;4.30;;
77449;SDS011;66536;53.150;18.172;2024-03-23T13:13:56;12.40;;;4.30;;
77449;SDS011;66536;53.150;18.172;2024-03-23T13:16:22;7.50;;;3.60;;
77449;SDS011;66536;53.150;18.172;2024-03-23T13:18:48;5.60;;;2.30;;
77449;SDS011;66536;53.150;18.172;2024-03-23T13:21:15;13.60;;;4.70;;
77449;SDS011;66536;53.150;18.172;2024-03-23T13:23:42;13.30;;;4.40;;
77449;SDS011;66536;53.150;18.172;2024-03-23T13:26:11;9.60;;;4.80;;
77449;SDS011;66536;53.150;18.172;2024-03-23T13:28:37;12.10;;;6.90;;
77449;SDS011;66536;53.150;18.172;2024-03-23T13:31:03;6.70;;;3.20;;
77449;SDS011;66536;53.150;18.172;2024-03-23T13:33:30;10.40;;;4.70;;
77449;SDS011;66536;53.150;18.172;2024-03-23T13:35:58;12.30;;;4.10;;
77449;SDS011;66536;53.150;18.172;2024-03-23T13:38:24;8.50;;;2.90;;
77449;SDS011;66536;53.150;18.172;2024-03-23T13:40:52;4.00;;;2.60;;
77449;SDS011;66536;53.150;18.172;2024-03-23T13:43:19;6.60;;;2.00;;
77449;SDS011;66536;53.150;18.172;2024-03-23T13:45:46;9.30;;;5.30;;
77449;SDS011;66536;53.150;18.172;2024-03-23T13:48:15;15.30;;;9.10;;
77449;SDS011;66536;53.150;18.172;2024-03-23T13:50:41;14.70;;;6.30;;
77449;SDS011;66536;53.150;18.172;2024-03-23T13:53:07;18.00;;;5.60;;
77449;SDS011;66536;53.150;18.172;2024-03-23T13:55:34;9.50;;;2.80;;
77449;SDS011;66536;53.150;18.172;2024-03-23T13:58:01;10.90;;;4.00;;
77449;SDS011;66536;53.150;18.172;2024-03-23T14:00:27;8.00;;;3.00;;
77449;SDS011;66536;53.150;18.172;2024-03-23T14:02:53;13.90;;;4.40;;
77449;SDS011;66536;53.150;18.172;2024-03-23T14:05:19;9.30;;;3.60;;
77449;SDS011;66536;53.150;18.172;2024-03-23T14:07:45;8.20;;;3.30;;
77449;SDS011;66536;53.150;18.172;2024-03-23T14:10:11;6.40;;;3.00;;
77449;SDS011;66536;53.150;18.172;2024-03-23T14:12:38;7.70;;;3.50;;
77449;SDS011;66536;53.150;18.172;2024-03-23T14:15:05;6.30;;;2.40;;
77449;SDS011;66536;53.150;18.172;2024-03-23T14:17:32;7.60;;;3.20;;
77449;SDS011;66536;53.150;18.172;2024-03-23T14:19:58;6.60;;;2.30;;
77449;SDS011;66536;53.150;18.172;2024-03-23T14:22:27;6.20;;;2.00;;
77449;SDS011;66536;53.150;18.172;2024-03-23T14:24:53;7.10;;;1.10;;
77449;SDS011;66536;53.150;18.172;2024-03-23T14:27:19;7.00;;;2.40;;
77449;SDS011;66536;53.150;18.172;2024-03-23T14:29:47;9.60;;;2.20;;
77449;SDS011;66536;53.150;18.172;2024-03-23T14:32:13;9.80;;;3.00;;
77449;SDS011;66536;53.150;18.172;2024-03-23T14:34:40;8.10;;;2.10;;
77449;SDS011;66536;53.150;18.172;2024-03-23T14:37:07;5.70;;;2.90;;
77449;SDS011;66536;53.150;18.172;2024-03-23T14:39:33;7.00;;;2.50;;
77449;SDS011;66536;53.150;18.172;2024-03-23T14:42:01;10.10;;;3.20;;
77449;SDS011;66536;53.150;18.172;2024-03-23T14:44:27;5.90;;;2.60;;
77449;SDS011;66536;53.150;18.172;2024-03-23T14:46:54;10.90;;;3.40;;
77449;SDS011;66536;53.150;18.172;2024-03-23T14:49:21;6.50;;;2.60;;
77449;SDS011;66536;53.150;18.172;2024-03-23T14:51:47;6.70;;;3.00;;
77449;SDS011;66536;53.150;18.172;2024-03-23T14:54:13;8.10;;;2.50;;
77449;SDS011;66536;53.150;18.172;2024-03-23T14:56:39;8.30;;;2.20;;
77449;SDS011;66536;53.150;18.172;2024-03-23T14:59:05;6.60;;;2.80;;
77449;SDS011;66536;53.150;18.172;2024-03-23T15:01:33;6.20;;;2.70;;
77449;SDS011;66536;53.150;18.172;2024-03-23T15:04:00;3.90;;;1.80;;
77449;SDS011;66536;53.150;18.172;2024-03-23T15:06:26;7.40;;;2.20;;
77449;SDS011;66536;53.150;18.172;2024-03-23T15:08:52;6.90;;;2.50;;
77449;SDS011;66536;53.150;18.172;2024-03-23T15:11:20;5.10;;;1.90;;
77449;SDS011;66536;53.150;18.172;2024-03-23T15:13:46;7.00;;;2.90;;
77449;SDS011;66536;53.150;18.172;2024-03-23T15:16:16;5.90;;;2.30;;
77449;SDS011;66536;53.150;18.172;2024-03-23T15:18:45;10.70;;;3.40;;
77449;SDS011;66536;53.150;18.172;2024-03-23T15:21:11;5.10;;;2.30;;
77449;SDS011;66536;53.150;18.172;2024-03-23T15:23:39;2.90;;;1.50;;
77449;SDS011;66536;53.150;18.172;2024-03-23T15:26:09;4.30;;;1.10;;
77449;SDS011;66536;53.150;18.172;2024-03-23T15:28:36;3.80;;;1.50;;
77449;SDS011;66536;53.150;18.172;2024-03-23T15:31:12;16.50;;;3.60;;